Aeroporto :
LOGIN :

Iscrizione | Disclaimer

   EN    FR    IT 

 










Sommario :    VFR   VFR Marginale   IFR   IFR Intensivo   IFR Molto Intensivo
Visibilità : 
Base nubi : 
>= 8 km
>= 3000ft
5 / 8 km
1000 / 3000 ft
1500m / 5 km
500 / 1000 ft
800 / 1500m
200 / 500 ft
< 800m
< 200 ft
Simboli :   Temporali  Nebbia  Neve Forte  Precipitazioni Forti  Vento > 20 kt
SIGMETs :   Varie  Temporali  Ghiacco  Turbolenza  Onda orograficha  Ceneri Vulcaniche







- Altitudine del aeroporto : 2425 ft


ETHA - Altenstadt Army

ULTIMO METAR :
  • 101745Z 28010KT 7000 -SHSN FEW013 SCT028 BKN050 01/M01 Q1020 WHT BLU TEMPO AMB

METARs OBSOLETI :
  • 101720Z 28010KT 9999 FEW032 BKN050 00/M01 Q1019 BLU BLU TEMPO AMB
  • 101620Z 27012KT 9999 FEW030 BKN050 01/M02 Q1020 BLU BLU TEMPO AMB
  • 101520Z 27015KT 9999 FEW012 BKN050 01/M02 Q1020 BLU BLU TEMPO AMB

TAF AMD TAF ETHA
Valido dal 10 a 15 ore il 11 a 00 ore UTC


101730Z 1015/1024 28015G25KT 9999 NSW SCT010 BKN050 BKN100
TEMPO 1015/1024 30020G30KT 1000 SHSN BKN005CB BKN030 CANCEL 1920
Nessun NOTAM noto per questo aeroporto.



MetMap, La meteo Aeronautica in un colpo d'occhio ! - Copyright ORBIFLY Dicembre 2007 - Disclaimer

ORBIFLY MET'MAP TEAM :

Programmazione e sviluppo : Alexandra Zaïnal
Concezione e sviluppo : Baudouin d'Aumeries
Co-Programmazione e sviluppo : Marc-Olivier Méhu
Supporto tecnico e logistico : Manuel Goepfert
Aiuto per la traduzione : Arnaldo La Scala

Contatto : metmap@orbifly.com




FONTI E CREDITI :

   NOAA